sensor_id;sensor_type;location;lat;lon;timestamp;P1;durP1;ratioP1;P2;durP2;ratioP2
80423;SDS011;69765;47.668;19.326;2023-06-22T00:02:55;9.73;;;4.40;;
80423;SDS011;69765;47.668;19.326;2023-06-22T00:05:57;10.05;;;4.10;;
80423;SDS011;69765;47.668;19.326;2023-06-22T00:08:59;7.75;;;4.28;;
80423;SDS011;69765;47.668;19.326;2023-06-22T00:12:02;6.78;;;4.35;;
80423;SDS011;69765;47.668;19.326;2023-06-22T00:15:05;7.47;;;4.28;;
80423;SDS011;69765;47.668;19.326;2023-06-22T00:18:08;10.50;;;4.20;;
80423;SDS011;69765;47.668;19.326;2023-06-22T00:21:11;10.48;;;4.85;;
80423;SDS011;69765;47.668;19.326;2023-06-22T00:24:14;9.30;;;4.30;;
80423;SDS011;69765;47.668;19.326;2023-06-22T00:27:16;6.93;;;4.22;;
80423;SDS011;69765;47.668;19.326;2023-06-22T00:30:19;10.05;;;4.75;;
80423;SDS011;69765;47.668;19.326;2023-06-22T00:33:21;8.40;;;4.07;;
80423;SDS011;69765;47.668;19.326;2023-06-22T00:36:23;6.32;;;3.58;;
80423;SDS011;69765;47.668;19.326;2023-06-22T00:39:26;9.15;;;4.50;;
80423;SDS011;69765;47.668;19.326;2023-06-22T00:42:29;8.75;;;4.22;;
80423;SDS011;69765;47.668;19.326;2023-06-22T00:45:31;11.85;;;4.65;;
80423;SDS011;69765;47.668;19.326;2023-06-22T00:48:34;7.45;;;4.63;;
80423;SDS011;69765;47.668;19.326;2023-06-22T00:51:38;8.30;;;4.45;;
80423;SDS011;69765;47.668;19.326;2023-06-22T00:54:41;6.25;;;4.20;;
80423;SDS011;69765;47.668;19.326;2023-06-22T00:57:47;8.15;;;4.13;;
80423;SDS011;69765;47.668;19.326;2023-06-22T01:00:51;7.10;;;4.10;;
80423;SDS011;69765;47.668;19.326;2023-06-22T01:03:53;9.25;;;4.22;;
80423;SDS011;69765;47.668;19.326;2023-06-22T01:07:15;8.40;;;5.15;;
80423;SDS011;69765;47.668;19.326;2023-06-22T01:13:44;7.57;;;4.28;;
80423;SDS011;69765;47.668;19.326;2023-06-22T01:16:50;7.47;;;4.70;;
80423;SDS011;69765;47.668;19.326;2023-06-22T01:19:56;8.85;;;4.88;;
80423;SDS011;69765;47.668;19.326;2023-06-22T01:30:00;10.32;;;4.15;;
80423;SDS011;69765;47.668;19.326;2023-06-22T01:33:10;7.07;;;4.25;;
80423;SDS011;69765;47.668;19.326;2023-06-22T01:36:14;9.70;;;5.70;;
80423;SDS011;69765;47.668;19.326;2023-06-22T01:39:20;6.90;;;4.15;;
80423;SDS011;69765;47.668;19.326;2023-06-22T01:42:26;6.97;;;3.78;;
80423;SDS011;69765;47.668;19.326;2023-06-22T01:45:29;8.85;;;4.07;;
80423;SDS011;69765;47.668;19.326;2023-06-22T01:48:32;8.18;;;4.20;;
80423;SDS011;69765;47.668;19.326;2023-06-22T01:51:36;6.60;;;4.90;;
80423;SDS011;69765;47.668;19.326;2023-06-22T01:54:39;6.32;;;4.47;;
80423;SDS011;69765;47.668;19.326;2023-06-22T01:57:42;8.13;;;4.43;;
80423;SDS011;69765;47.668;19.326;2023-06-22T02:00:47;10.23;;;4.70;;
80423;SDS011;69765;47.668;19.326;2023-06-22T02:04:38;9.43;;;4.63;;
80423;SDS011;69765;47.668;19.326;2023-06-22T02:07:23;8.32;;;4.40;;
80423;SDS011;69765;47.668;19.326;2023-06-22T02:10:37;9.73;;;4.70;;
80423;SDS011;69765;47.668;19.326;2023-06-22T02:13:43;7.65;;;5.07;;
80423;SDS011;69765;47.668;19.326;2023-06-22T02:16:46;9.82;;;4.88;;
80423;SDS011;69765;47.668;19.326;2023-06-22T02:19:49;10.98;;;7.10;;
80423;SDS011;69765;47.668;19.326;2023-06-22T02:22:51;8.40;;;4.93;;
80423;SDS011;69765;47.668;19.326;2023-06-22T02:25:54;9.02;;;4.93;;
80423;SDS011;69765;47.668;19.326;2023-06-22T02:28:58;9.35;;;5.88;;
80423;SDS011;69765;47.668;19.326;2023-06-22T02:32:01;10.35;;;5.28;;
80423;SDS011;69765;47.668;19.326;2023-06-22T02:35:03;10.45;;;5.18;;
80423;SDS011;69765;47.668;19.326;2023-06-22T02:38:06;8.15;;;5.13;;
80423;SDS011;69765;47.668;19.326;2023-06-22T02:41:10;8.95;;;5.35;;
80423;SDS011;69765;47.668;19.326;2023-06-22T02:44:15;7.90;;;5.25;;
80423;SDS011;69765;47.668;19.326;2023-06-22T02:47:17;8.02;;;5.00;;
80423;SDS011;69765;47.668;19.326;2023-06-22T02:50:20;9.77;;;4.97;;
80423;SDS011;69765;47.668;19.326;2023-06-22T02:53:23;12.15;;;5.00;;
80423;SDS011;69765;47.668;19.326;2023-06-22T02:56:25;6.93;;;4.90;;
80423;SDS011;69765;47.668;19.326;2023-06-22T02:59:33;6.93;;;4.50;;
80423;SDS011;69765;47.668;19.326;2023-06-22T03:02:43;9.90;;;5.32;;
80423;SDS011;69765;47.668;19.326;2023-06-22T03:05:46;8.13;;;5.07;;
80423;SDS011;69765;47.668;19.326;2023-06-22T03:08:49;9.02;;;4.60;;
80423;SDS011;69765;47.668;19.326;2023-06-22T03:11:52;9.90;;;4.95;;
80423;SDS011;69765;47.668;19.326;2023-06-22T03:14:56;9.38;;;4.95;;
80423;SDS011;69765;47.668;19.326;2023-06-22T03:17:59;9.90;;;4.78;;
80423;SDS011;69765;47.668;19.326;2023-06-22T03:21:02;9.82;;;4.85;;
80423;SDS011;69765;47.668;19.326;2023-06-22T03:24:06;10.10;;;4.30;;
80423;SDS011;69765;47.668;19.326;2023-06-22T03:27:09;6.97;;;3.92;;
80423;SDS011;69765;47.668;19.326;2023-06-22T03:30:11;6.35;;;3.72;;
80423;SDS011;69765;47.668;19.326;2023-06-22T03:33:14;9.75;;;5.28;;
80423;SDS011;69765;47.668;19.326;2023-06-22T03:36:17;8.52;;;4.05;;
80423;SDS011;69765;47.668;19.326;2023-06-22T03:39:24;8.35;;;3.47;;
80423;SDS011;69765;47.668;19.326;2023-06-22T03:42:27;11.88;;;4.20;;
80423;SDS011;69765;47.668;19.326;2023-06-22T03:45:29;6.85;;;3.85;;
80423;SDS011;69765;47.668;19.326;2023-06-22T03:48:32;9.90;;;4.35;;
80423;SDS011;69765;47.668;19.326;2023-06-22T03:51:35;8.20;;;4.88;;
80423;SDS011;69765;47.668;19.326;2023-06-22T03:54:37;8.20;;;5.20;;
80423;SDS011;69765;47.668;19.326;2023-06-22T03:57:39;8.30;;;5.30;;
80423;SDS011;69765;47.668;19.326;2023-06-22T04:00:42;8.25;;;5.75;;
80423;SDS011;69765;47.668;19.326;2023-06-22T04:03:44;8.38;;;4.80;;
80423;SDS011;69765;47.668;19.326;2023-06-22T04:06:47;9.80;;;4.97;;
80423;SDS011;69765;47.668;19.326;2023-06-22T04:09:49;11.15;;;5.18;;
80423;SDS011;69765;47.668;19.326;2023-06-22T04:12:51;11.85;;;4.88;;
80423;SDS011;69765;47.668;19.326;2023-06-22T04:15:54;10.25;;;5.03;;
80423;SDS011;69765;47.668;19.326;2023-06-22T04:18:56;11.98;;;5.80;;
80423;SDS011;69765;47.668;19.326;2023-06-22T04:21:58;8.85;;;5.13;;
80423;SDS011;69765;47.668;19.326;2023-06-22T04:25:01;8.60;;;4.93;;
80423;SDS011;69765;47.668;19.326;2023-06-22T04:28:03;9.70;;;5.22;;
80423;SDS011;69765;47.668;19.326;2023-06-22T04:31:06;7.20;;;4.72;;
80423;SDS011;69765;47.668;19.326;2023-06-22T04:34:09;7.57;;;4.35;;
80423;SDS011;69765;47.668;19.326;2023-06-22T04:37:11;8.30;;;4.43;;
80423;SDS011;69765;47.668;19.326;2023-06-22T04:40:17;9.18;;;4.35;;
80423;SDS011;69765;47.668;19.326;2023-06-22T04:43:20;8.70;;;4.63;;
80423;SDS011;69765;47.668;19.326;2023-06-22T04:46:22;11.45;;;4.40;;
80423;SDS011;69765;47.668;19.326;2023-06-22T04:49:24;10.70;;;4.40;;
80423;SDS011;69765;47.668;19.326;2023-06-22T04:52:34;10.68;;;4.65;;
80423;SDS011;69765;47.668;19.326;2023-06-22T04:55:36;7.45;;;4.13;;
80423;SDS011;69765;47.668;19.326;2023-06-22T04:58:40;6.00;;;4.35;;
80423;SDS011;69765;47.668;19.326;2023-06-22T05:01:42;7.80;;;4.03;;
80423;SDS011;69765;47.668;19.326;2023-06-22T05:04:44;6.18;;;4.07;;
80423;SDS011;69765;47.668;19.326;2023-06-22T05:07:49;8.80;;;5.10;;
80423;SDS011;69765;47.668;19.326;2023-06-22T05:10:54;9.48;;;4.70;;
80423;SDS011;69765;47.668;19.326;2023-06-22T05:14:07;9.57;;;4.72;;
80423;SDS011;69765;47.668;19.326;2023-06-22T05:17:09;9.55;;;4.82;;
80423;SDS011;69765;47.668;19.326;2023-06-22T05:23:20;9.02;;;4.90;;
80423;SDS011;69765;47.668;19.326;2023-06-22T05:26:22;8.52;;;4.75;;
80423;SDS011;69765;47.668;19.326;2023-06-22T05:29:26;9.25;;;4.95;;
80423;SDS011;69765;47.668;19.326;2023-06-22T05:32:28;11.07;;;4.32;;
80423;SDS011;69765;47.668;19.326;2023-06-22T05:35:31;11.15;;;4.88;;
80423;SDS011;69765;47.668;19.326;2023-06-22T05:38:33;7.57;;;4.53;;
80423;SDS011;69765;47.668;19.326;2023-06-22T05:41:35;7.25;;;4.95;;
80423;SDS011;69765;47.668;19.326;2023-06-22T05:44:38;9.52;;;5.10;;
80423;SDS011;69765;47.668;19.326;2023-06-22T05:47:42;9.15;;;4.15;;
80423;SDS011;69765;47.668;19.326;2023-06-22T05:50:44;8.63;;;4.43;;
80423;SDS011;69765;47.668;19.326;2023-06-22T05:53:47;7.30;;;4.07;;
80423;SDS011;69765;47.668;19.326;2023-06-22T05:56:51;10.38;;;3.80;;
80423;SDS011;69765;47.668;19.326;2023-06-22T05:59:54;6.93;;;3.70;;
80423;SDS011;69765;47.668;19.326;2023-06-22T06:02:56;8.25;;;4.00;;
80423;SDS011;69765;47.668;19.326;2023-06-22T06:05:58;13.15;;;4.25;;
80423;SDS011;69765;47.668;19.326;2023-06-22T06:09:01;9.30;;;4.70;;
80423;SDS011;69765;47.668;19.326;2023-06-22T06:12:06;11.15;;;4.25;;
80423;SDS011;69765;47.668;19.326;2023-06-22T06:15:09;7.80;;;3.92;;
80423;SDS011;69765;47.668;19.326;2023-06-22T06:18:12;11.13;;;3.92;;
80423;SDS011;69765;47.668;19.326;2023-06-22T06:21:15;8.27;;;3.40;;
80423;SDS011;69765;47.668;19.326;2023-06-22T06:24:17;6.82;;;3.85;;
80423;SDS011;69765;47.668;19.326;2023-06-22T06:27:20;10.52;;;3.80;;
80423;SDS011;69765;47.668;19.326;2023-06-22T06:30:22;15.75;;;3.88;;
80423;SDS011;69765;47.668;19.326;2023-06-22T06:33:25;7.90;;;3.58;;
80423;SDS011;69765;47.668;19.326;2023-06-22T06:36:27;8.45;;;3.55;;
80423;SDS011;69765;47.668;19.326;2023-06-22T06:39:29;4.78;;;2.50;;
80423;SDS011;69765;47.668;19.326;2023-06-22T06:42:32;7.60;;;3.67;;
80423;SDS011;69765;47.668;19.326;2023-06-22T06:45:34;8.25;;;3.80;;
80423;SDS011;69765;47.668;19.326;2023-06-22T06:48:37;11.65;;;3.90;;
80423;SDS011;69765;47.668;19.326;2023-06-22T06:51:39;5.32;;;2.58;;
80423;SDS011;69765;47.668;19.326;2023-06-22T06:54:41;5.07;;;2.92;;
80423;SDS011;69765;47.668;19.326;2023-06-22T06:57:44;4.90;;;2.72;;
80423;SDS011;69765;47.668;19.326;2023-06-22T07:00:50;8.18;;;2.60;;
80423;SDS011;69765;47.668;19.326;2023-06-22T07:03:52;6.15;;;2.90;;
80423;SDS011;69765;47.668;19.326;2023-06-22T07:06:58;8.90;;;3.42;;
80423;SDS011;69765;47.668;19.326;2023-06-22T07:10:11;4.25;;;2.83;;
80423;SDS011;69765;47.668;19.326;2023-06-22T07:13:14;7.95;;;3.05;;
80423;SDS011;69765;47.668;19.326;2023-06-22T07:16:16;5.72;;;2.80;;
80423;SDS011;69765;47.668;19.326;2023-06-22T07:19:28;6.10;;;2.92;;
80423;SDS011;69765;47.668;19.326;2023-06-22T07:22:30;7.97;;;3.13;;
80423;SDS011;69765;47.668;19.326;2023-06-22T07:25:32;5.50;;;3.00;;
80423;SDS011;69765;47.668;19.326;2023-06-22T07:28:34;7.70;;;3.22;;
80423;SDS011;69765;47.668;19.326;2023-06-22T07:31:40;7.78;;;3.05;;
80423;SDS011;69765;47.668;19.326;2023-06-22T07:34:43;5.80;;;3.13;;
80423;SDS011;69765;47.668;19.326;2023-06-22T07:37:45;6.20;;;3.72;;
80423;SDS011;69765;47.668;19.326;2023-06-22T07:40:48;7.47;;;3.65;;
80423;SDS011;69765;47.668;19.326;2023-06-22T07:43:50;10.77;;;3.72;;
80423;SDS011;69765;47.668;19.326;2023-06-22T07:46:53;6.47;;;3.08;;
80423;SDS011;69765;47.668;19.326;2023-06-22T07:49:55;6.78;;;3.50;;
80423;SDS011;69765;47.668;19.326;2023-06-22T07:53:03;7.53;;;3.30;;
80423;SDS011;69765;47.668;19.326;2023-06-22T07:56:05;9.02;;;3.42;;
80423;SDS011;69765;47.668;19.326;2023-06-22T07:59:09;5.55;;;3.28;;
80423;SDS011;69765;47.668;19.326;2023-06-22T08:02:11;6.03;;;3.20;;
80423;SDS011;69765;47.668;19.326;2023-06-22T08:05:14;7.97;;;3.60;;
80423;SDS011;69765;47.668;19.326;2023-06-22T08:08:20;9.38;;;3.83;;
80423;SDS011;69765;47.668;19.326;2023-06-22T08:11:22;7.28;;;3.22;;
80423;SDS011;69765;47.668;19.326;2023-06-22T08:14:27;8.20;;;3.67;;
80423;SDS011;69765;47.668;19.326;2023-06-22T08:17:31;5.53;;;2.97;;
80423;SDS011;69765;47.668;19.326;2023-06-22T08:20:34;7.18;;;3.15;;
80423;SDS011;69765;47.668;19.326;2023-06-22T08:23:36;7.20;;;3.10;;
80423;SDS011;69765;47.668;19.326;2023-06-22T08:26:38;9.23;;;3.92;;
80423;SDS011;69765;47.668;19.326;2023-06-22T08:29:41;7.80;;;4.20;;
80423;SDS011;69765;47.668;19.326;2023-06-22T08:32:44;9.63;;;2.97;;
80423;SDS011;69765;47.668;19.326;2023-06-22T08:35:46;7.97;;;3.45;;
80423;SDS011;69765;47.668;19.326;2023-06-22T08:38:49;7.15;;;3.45;;
80423;SDS011;69765;47.668;19.326;2023-06-22T08:41:53;6.22;;;3.13;;
80423;SDS011;69765;47.668;19.326;2023-06-22T08:44:55;9.27;;;3.45;;
80423;SDS011;69765;47.668;19.326;2023-06-22T08:47:57;7.65;;;3.42;;
80423;SDS011;69765;47.668;19.326;2023-06-22T08:51:00;7.38;;;3.10;;
80423;SDS011;69765;47.668;19.326;2023-06-22T08:54:05;7.95;;;3.45;;
80423;SDS011;69765;47.668;19.326;2023-06-22T08:57:07;10.13;;;3.60;;
80423;SDS011;69765;47.668;19.326;2023-06-22T09:00:10;8.20;;;3.72;;
80423;SDS011;69765;47.668;19.326;2023-06-22T09:03:19;8.20;;;3.83;;
80423;SDS011;69765;47.668;19.326;2023-06-22T09:06:23;6.85;;;3.55;;
80423;SDS011;69765;47.668;19.326;2023-06-22T09:09:26;8.05;;;3.75;;
80423;SDS011;69765;47.668;19.326;2023-06-22T09:12:29;9.30;;;3.72;;
80423;SDS011;69765;47.668;19.326;2023-06-22T09:15:32;11.18;;;4.45;;
80423;SDS011;69765;47.668;19.326;2023-06-22T09:18:36;5.93;;;4.00;;
80423;SDS011;69765;47.668;19.326;2023-06-22T09:21:38;7.65;;;3.95;;
80423;SDS011;69765;47.668;19.326;2023-06-22T09:24:41;10.20;;;5.45;;
80423;SDS011;69765;47.668;19.326;2023-06-22T09:27:43;8.77;;;4.28;;
80423;SDS011;69765;47.668;19.326;2023-06-22T09:30:46;7.47;;;4.90;;
80423;SDS011;69765;47.668;19.326;2023-06-22T09:33:48;8.13;;;4.32;;
80423;SDS011;69765;47.668;19.326;2023-06-22T09:36:50;6.22;;;5.43;;
80423;SDS011;69765;47.668;19.326;2023-06-22T09:39:53;6.30;;;4.10;;
80423;SDS011;69765;47.668;19.326;2023-06-22T09:42:55;11.02;;;4.70;;
80423;SDS011;69765;47.668;19.326;2023-06-22T09:45:57;12.15;;;4.68;;
80423;SDS011;69765;47.668;19.326;2023-06-22T09:49:00;11.45;;;4.75;;
80423;SDS011;69765;47.668;19.326;2023-06-22T09:52:02;7.47;;;4.63;;
80423;SDS011;69765;47.668;19.326;2023-06-22T09:55:05;10.32;;;4.82;;
80423;SDS011;69765;47.668;19.326;2023-06-22T09:58:08;8.30;;;5.03;;
80423;SDS011;69765;47.668;19.326;2023-06-22T10:01:10;10.30;;;5.28;;
80423;SDS011;69765;47.668;19.326;2023-06-22T10:04:13;10.00;;;5.22;;
80423;SDS011;69765;47.668;19.326;2023-06-22T10:07:16;7.18;;;5.32;;
80423;SDS011;69765;47.668;19.326;2023-06-22T10:10:18;9.73;;;5.68;;
80423;SDS011;69765;47.668;19.326;2023-06-22T10:13:21;12.60;;;5.20;;
80423;SDS011;69765;47.668;19.326;2023-06-22T10:16:29;8.30;;;5.50;;
80423;SDS011;69765;47.668;19.326;2023-06-22T10:19:32;6.80;;;4.93;;
80423;SDS011;69765;47.668;19.326;2023-06-22T10:22:35;8.45;;;5.57;;
80423;SDS011;69765;47.668;19.326;2023-06-22T10:25:39;8.43;;;5.55;;
80423;SDS011;69765;47.668;19.326;2023-06-22T10:28:48;7.35;;;4.82;;
80423;SDS011;69765;47.668;19.326;2023-06-22T10:31:58;10.10;;;5.43;;
80423;SDS011;69765;47.668;19.326;2023-06-22T10:35:01;8.35;;;5.65;;
80423;SDS011;69765;47.668;19.326;2023-06-22T10:38:03;9.60;;;5.90;;
80423;SDS011;69765;47.668;19.326;2023-06-22T10:41:07;8.38;;;5.65;;
80423;SDS011;69765;47.668;19.326;2023-06-22T10:44:09;10.73;;;5.75;;
80423;SDS011;69765;47.668;19.326;2023-06-22T10:47:11;9.82;;;5.72;;
80423;SDS011;69765;47.668;19.326;2023-06-22T10:50:14;9.40;;;4.63;;
80423;SDS011;69765;47.668;19.326;2023-06-22T10:53:17;7.97;;;5.65;;
80423;SDS011;69765;47.668;19.326;2023-06-22T10:56:19;8.75;;;5.97;;
80423;SDS011;69765;47.668;19.326;2023-06-22T10:59:22;11.65;;;5.80;;
80423;SDS011;69765;47.668;19.326;2023-06-22T11:02:25;12.35;;;6.32;;
80423;SDS011;69765;47.668;19.326;2023-06-22T11:05:30;7.25;;;5.03;;
80423;SDS011;69765;47.668;19.326;2023-06-22T11:08:33;11.75;;;6.55;;
80423;SDS011;69765;47.668;19.326;2023-06-22T11:11:36;10.25;;;6.07;;
80423;SDS011;69765;47.668;19.326;2023-06-22T11:14:39;7.90;;;5.28;;
80423;SDS011;69765;47.668;19.326;2023-06-22T11:17:41;7.25;;;5.35;;
80423;SDS011;69765;47.668;19.326;2023-06-22T11:20:43;10.65;;;5.53;;
80423;SDS011;69765;47.668;19.326;2023-06-22T11:23:48;9.68;;;5.68;;
80423;SDS011;69765;47.668;19.326;2023-06-22T11:26:50;9.07;;;5.28;;
80423;SDS011;69765;47.668;19.326;2023-06-22T11:29:53;8.73;;;5.55;;
80423;SDS011;69765;47.668;19.326;2023-06-22T11:32:56;6.13;;;4.85;;
80423;SDS011;69765;47.668;19.326;2023-06-22T11:35:59;9.10;;;5.40;;
80423;SDS011;69765;47.668;19.326;2023-06-22T11:39:02;8.95;;;5.72;;
80423;SDS011;69765;47.668;19.326;2023-06-22T11:42:09;9.93;;;5.63;;
80423;SDS011;69765;47.668;19.326;2023-06-22T11:45:12;8.50;;;5.32;;
80423;SDS011;69765;47.668;19.326;2023-06-22T11:48:14;7.32;;;4.82;;
80423;SDS011;69765;47.668;19.326;2023-06-22T11:51:17;8.10;;;5.30;;
80423;SDS011;69765;47.668;19.326;2023-06-22T11:54:19;8.90;;;5.53;;
80423;SDS011;69765;47.668;19.326;2023-06-22T11:57:21;7.45;;;5.45;;
80423;SDS011;69765;47.668;19.326;2023-06-22T12:00:24;8.80;;;5.00;;
80423;SDS011;69765;47.668;19.326;2023-06-22T12:03:30;9.63;;;4.75;;
80423;SDS011;69765;47.668;19.326;2023-06-22T12:06:33;6.60;;;4.55;;
80423;SDS011;69765;47.668;19.326;2023-06-22T12:09:39;10.10;;;5.00;;
80423;SDS011;69765;47.668;19.326;2023-06-22T12:12:42;9.27;;;4.93;;
80423;SDS011;69765;47.668;19.326;2023-06-22T12:15:44;6.57;;;4.97;;
80423;SDS011;69765;47.668;19.326;2023-06-22T12:18:47;7.18;;;4.93;;
80423;SDS011;69765;47.668;19.326;2023-06-22T12:21:49;10.93;;;5.55;;
80423;SDS011;69765;47.668;19.326;2023-06-22T12:24:52;8.15;;;5.05;;
80423;SDS011;69765;47.668;19.326;2023-06-22T12:27:54;6.72;;;5.03;;
80423;SDS011;69765;47.668;19.326;2023-06-22T12:30:57;9.88;;;5.72;;
80423;SDS011;69765;47.668;19.326;2023-06-22T12:33:59;8.27;;;5.22;;
80423;SDS011;69765;47.668;19.326;2023-06-22T12:37:01;7.05;;;5.35;;
80423;SDS011;69765;47.668;19.326;2023-06-22T12:40:04;7.75;;;5.40;;
80423;SDS011;69765;47.668;19.326;2023-06-22T12:43:07;7.47;;;4.57;;
80423;SDS011;69765;47.668;19.326;2023-06-22T12:46:09;8.35;;;5.15;;
80423;SDS011;69765;47.668;19.326;2023-06-22T12:49:11;9.15;;;5.22;;
80423;SDS011;69765;47.668;19.326;2023-06-22T12:52:14;8.02;;;5.35;;
80423;SDS011;69765;47.668;19.326;2023-06-22T12:55:18;8.95;;;5.03;;
80423;SDS011;69765;47.668;19.326;2023-06-22T12:58:31;8.68;;;5.80;;
80423;SDS011;69765;47.668;19.326;2023-06-22T13:01:33;9.45;;;4.90;;
80423;SDS011;69765;47.668;19.326;2023-06-22T13:04:35;7.25;;;5.03;;
80423;SDS011;69765;47.668;19.326;2023-06-22T13:07:38;9.50;;;5.57;;
80423;SDS011;69765;47.668;19.326;2023-06-22T13:10:40;7.88;;;5.13;;
80423;SDS011;69765;47.668;19.326;2023-06-22T13:13:44;12.30;;;5.43;;
80423;SDS011;69765;47.668;19.326;2023-06-22T13:16:47;6.80;;;5.15;;
80423;SDS011;69765;47.668;19.326;2023-06-22T13:19:49;8.82;;;5.45;;
80423;SDS011;69765;47.668;19.326;2023-06-22T13:22:52;7.53;;;4.90;;
80423;SDS011;69765;47.668;19.326;2023-06-22T13:25:55;8.15;;;5.82;;
80423;SDS011;69765;47.668;19.326;2023-06-22T13:28:58;8.32;;;5.40;;
80423;SDS011;69765;47.668;19.326;2023-06-22T13:32:00;10.65;;;5.95;;
80423;SDS011;69765;47.668;19.326;2023-06-22T13:35:02;6.72;;;5.28;;
80423;SDS011;69765;47.668;19.326;2023-06-22T13:38:05;9.93;;;5.15;;
80423;SDS011;69765;47.668;19.326;2023-06-22T13:41:07;10.70;;;5.38;;
80423;SDS011;69765;47.668;19.326;2023-06-22T13:44:10;9.55;;;5.85;;
80423;SDS011;69765;47.668;19.326;2023-06-22T13:47:12;6.93;;;4.88;;
80423;SDS011;69765;47.668;19.326;2023-06-22T13:50:14;10.23;;;5.72;;
80423;SDS011;69765;47.668;19.326;2023-06-22T13:53:17;9.98;;;5.05;;
80423;SDS011;69765;47.668;19.326;2023-06-22T13:56:19;9.35;;;5.63;;
80423;SDS011;69765;47.668;19.326;2023-06-22T13:59:21;7.85;;;5.53;;
80423;SDS011;69765;47.668;19.326;2023-06-22T14:02:25;9.07;;;5.55;;
80423;SDS011;69765;47.668;19.326;2023-06-22T14:05:28;8.38;;;5.97;;
80423;SDS011;69765;47.668;19.326;2023-06-22T14:08:30;8.52;;;5.20;;
80423;SDS011;69765;47.668;19.326;2023-06-22T14:11:43;7.63;;;5.25;;
80423;SDS011;69765;47.668;19.326;2023-06-22T14:14:45;12.63;;;5.65;;
80423;SDS011;69765;47.668;19.326;2023-06-22T14:17:48;10.48;;;6.10;;
80423;SDS011;69765;47.668;19.326;2023-06-22T14:20:50;11.43;;;5.80;;
80423;SDS011;69765;47.668;19.326;2023-06-22T14:23:52;8.75;;;5.65;;
80423;SDS011;69765;47.668;19.326;2023-06-22T14:26:55;10.85;;;5.65;;
80423;SDS011;69765;47.668;19.326;2023-06-22T14:29:57;9.88;;;5.65;;
80423;SDS011;69765;47.668;19.326;2023-06-22T14:33:00;7.05;;;5.03;;
80423;SDS011;69765;47.668;19.326;2023-06-22T14:36:02;7.90;;;5.85;;
80423;SDS011;69765;47.668;19.326;2023-06-22T14:39:05;8.30;;;5.82;;
80423;SDS011;69765;47.668;19.326;2023-06-22T14:42:08;9.65;;;5.55;;
80423;SDS011;69765;47.668;19.326;2023-06-22T14:45:10;9.25;;;5.80;;
80423;SDS011;69765;47.668;19.326;2023-06-22T14:48:13;8.23;;;5.95;;
80423;SDS011;69765;47.668;19.326;2023-06-22T14:51:15;11.95;;;5.60;;
80423;SDS011;69765;47.668;19.326;2023-06-22T14:54:18;12.13;;;5.60;;
80423;SDS011;69765;47.668;19.326;2023-06-22T14:57:21;11.73;;;5.45;;
80423;SDS011;69765;47.668;19.326;2023-06-22T15:00:24;8.88;;;5.60;;
80423;SDS011;69765;47.668;19.326;2023-06-22T15:03:27;8.43;;;5.78;;
80423;SDS011;69765;47.668;19.326;2023-06-22T15:06:32;14.32;;;6.35;;
80423;SDS011;69765;47.668;19.326;2023-06-22T15:09:34;10.07;;;6.15;;
80423;SDS011;69765;47.668;19.326;2023-06-22T15:12:37;11.18;;;5.50;;
80423;SDS011;69765;47.668;19.326;2023-06-22T15:15:39;8.95;;;5.65;;
80423;SDS011;69765;47.668;19.326;2023-06-22T15:18:41;9.25;;;5.57;;
80423;SDS011;69765;47.668;19.326;2023-06-22T15:21:44;9.23;;;5.20;;
80423;SDS011;69765;47.668;19.326;2023-06-22T15:24:46;7.88;;;5.65;;
80423;SDS011;69765;47.668;19.326;2023-06-22T15:27:50;8.32;;;5.60;;
80423;SDS011;69765;47.668;19.326;2023-06-22T15:30:52;8.68;;;6.03;;
80423;SDS011;69765;47.668;19.326;2023-06-22T15:33:54;8.85;;;6.35;;
80423;SDS011;69765;47.668;19.326;2023-06-22T15:36:57;10.85;;;5.93;;
80423;SDS011;69765;47.668;19.326;2023-06-22T15:39:59;11.63;;;6.03;;
80423;SDS011;69765;47.668;19.326;2023-06-22T15:43:02;9.20;;;5.60;;
80423;SDS011;69765;47.668;19.326;2023-06-22T15:46:04;9.93;;;5.30;;
80423;SDS011;69765;47.668;19.326;2023-06-22T15:49:06;10.65;;;6.30;;
80423;SDS011;69765;47.668;19.326;2023-06-22T15:52:09;7.13;;;5.25;;
80423;SDS011;69765;47.668;19.326;2023-06-22T15:55:11;11.57;;;6.03;;
80423;SDS011;69765;47.668;19.326;2023-06-22T15:58:13;7.80;;;5.57;;
80423;SDS011;69765;47.668;19.326;2023-06-22T16:01:18;11.75;;;6.50;;
80423;SDS011;69765;47.668;19.326;2023-06-22T16:04:21;10.50;;;6.00;;
80423;SDS011;69765;47.668;19.326;2023-06-22T16:07:24;9.95;;;5.95;;
80423;SDS011;69765;47.668;19.326;2023-06-22T16:10:26;9.10;;;5.80;;
80423;SDS011;69765;47.668;19.326;2023-06-22T16:13:29;12.40;;;5.78;;
80423;SDS011;69765;47.668;19.326;2023-06-22T16:16:31;8.75;;;5.95;;
80423;SDS011;69765;47.668;19.326;2023-06-22T16:19:34;11.57;;;6.18;;
80423;SDS011;69765;47.668;19.326;2023-06-22T16:22:36;9.52;;;6.07;;
80423;SDS011;69765;47.668;19.326;2023-06-22T16:25:38;10.10;;;6.03;;
80423;SDS011;69765;47.668;19.326;2023-06-22T16:28:41;11.10;;;6.57;;
80423;SDS011;69765;47.668;19.326;2023-06-22T16:31:43;10.82;;;6.00;;
80423;SDS011;69765;47.668;19.326;2023-06-22T16:34:45;11.02;;;6.53;;
80423;SDS011;69765;47.668;19.326;2023-06-22T16:37:48;8.27;;;5.32;;
80423;SDS011;69765;47.668;19.326;2023-06-22T16:40:50;6.93;;;5.28;;
80423;SDS011;69765;47.668;19.326;2023-06-22T16:43:53;8.38;;;5.78;;
80423;SDS011;69765;47.668;19.326;2023-06-22T16:46:55;11.18;;;5.78;;
80423;SDS011;69765;47.668;19.326;2023-06-22T16:49:59;8.93;;;5.88;;
80423;SDS011;69765;47.668;19.326;2023-06-22T16:53:01;8.95;;;5.72;;
80423;SDS011;69765;47.668;19.326;2023-06-22T16:56:04;10.20;;;6.25;;
80423;SDS011;69765;47.668;19.326;2023-06-22T16:59:07;7.82;;;5.53;;
80423;SDS011;69765;47.668;19.326;2023-06-22T17:02:12;10.43;;;5.97;;
80423;SDS011;69765;47.668;19.326;2023-06-22T17:05:22;8.20;;;6.07;;
80423;SDS011;69765;47.668;19.326;2023-06-22T17:08:25;8.43;;;6.15;;
80423;SDS011;69765;47.668;19.326;2023-06-22T17:11:34;9.10;;;6.10;;
80423;SDS011;69765;47.668;19.326;2023-06-22T17:14:38;9.38;;;5.53;;
80423;SDS011;69765;47.668;19.326;2023-06-22T17:17:41;9.93;;;6.40;;
80423;SDS011;69765;47.668;19.326;2023-06-22T17:20:45;9.98;;;6.05;;
80423;SDS011;69765;47.668;19.326;2023-06-22T17:23:48;7.82;;;6.28;;
80423;SDS011;69765;47.668;19.326;2023-06-22T17:26:52;9.98;;;5.80;;
80423;SDS011;69765;47.668;19.326;2023-06-22T17:30:02;8.43;;;6.13;;
80423;SDS011;69765;47.668;19.326;2023-06-22T17:33:09;8.52;;;6.72;;
80423;SDS011;69765;47.668;19.326;2023-06-22T17:36:16;8.05;;;7.03;;
80423;SDS011;69765;47.668;19.326;2023-06-22T17:39:18;8.02;;;6.35;;
80423;SDS011;69765;47.668;19.326;2023-06-22T17:42:22;7.60;;;6.28;;
80423;SDS011;69765;47.668;19.326;2023-06-22T17:45:27;7.07;;;6.20;;
80423;SDS011;69765;47.668;19.326;2023-06-22T17:48:30;9.43;;;6.90;;
80423;SDS011;69765;47.668;19.326;2023-06-22T17:51:32;10.73;;;7.47;;
80423;SDS011;69765;47.668;19.326;2023-06-22T17:54:35;10.18;;;7.50;;
80423;SDS011;69765;47.668;19.326;2023-06-22T17:57:54;12.07;;;7.28;;
80423;SDS011;69765;47.668;19.326;2023-06-22T18:00:58;7.50;;;6.28;;
80423;SDS011;69765;47.668;19.326;2023-06-22T18:04:04;11.20;;;7.43;;
80423;SDS011;69765;47.668;19.326;2023-06-22T18:07:11;14.27;;;8.38;;
80423;SDS011;69765;47.668;19.326;2023-06-22T18:10:13;11.15;;;7.80;;
80423;SDS011;69765;47.668;19.326;2023-06-22T18:13:15;10.10;;;7.00;;
80423;SDS011;69765;47.668;19.326;2023-06-22T18:16:20;9.00;;;6.65;;
80423;SDS011;69765;47.668;19.326;2023-06-22T18:19:24;15.25;;;7.80;;